createdAt,value
2016-11-14T00:00:06.400Z,1024.47
2016-11-14T00:01:06.368Z,1024.44
2016-11-14T00:02:06.338Z,1024.45
2016-11-14T00:03:06.316Z,1024.46
2016-11-14T00:04:06.288Z,1024.47
2016-11-14T00:05:06.262Z,1024.49
2016-11-14T00:06:06.229Z,1024.48
2016-11-14T00:07:06.206Z,1024.47
2016-11-14T00:08:06.182Z,1024.49
2016-11-14T00:09:06.158Z,1024.47
2016-11-14T00:10:06.138Z,1024.42
2016-11-14T00:11:06.097Z,1024.4
2016-11-14T00:12:06.073Z,1024.39
2016-11-14T00:13:06.045Z,1024.46
2016-11-14T00:14:06.018Z,1024.45
2016-11-14T00:15:05.991Z,1024.48
2016-11-14T00:16:05.966Z,1024.53
2016-11-14T00:17:05.938Z,1024.58
2016-11-14T00:18:05.910Z,1024.59
2016-11-14T00:19:05.888Z,1024.59
2016-11-14T00:20:05.851Z,1024.58
2016-11-14T00:21:05.830Z,1024.61
2016-11-14T00:22:05.802Z,1024.6
2016-11-14T00:23:05.779Z,1024.61
2016-11-14T00:24:05.748Z,1024.57
2016-11-14T00:25:05.730Z,1024.6
2016-11-14T00:26:05.697Z,1024.57
2016-11-14T00:27:05.667Z,1024.58
2016-11-14T00:28:05.640Z,1024.56
2016-11-14T00:29:05.610Z,1024.56
2016-11-14T00:30:05.593Z,1024.53
2016-11-14T00:31:05.572Z,1024.57
2016-11-14T00:32:05.532Z,1024.56
2016-11-14T00:33:05.507Z,1024.58
2016-11-14T00:34:05.476Z,1024.55
2016-11-14T00:35:05.452Z,1024.56
2016-11-14T00:36:05.430Z,1024.52
2016-11-14T00:37:05.402Z,1024.52
2016-11-14T00:38:05.371Z,1024.54
2016-11-14T00:39:05.343Z,1024.51
2016-11-14T00:40:05.315Z,1024.52
2016-11-14T00:41:05.293Z,1024.48
2016-11-14T00:42:05.261Z,1024.49
2016-11-14T00:43:05.240Z,1024.51
2016-11-14T00:44:05.208Z,1024.48
2016-11-14T00:45:05.181Z,1024.42
2016-11-14T00:46:05.150Z,1024.46
2016-11-14T00:47:05.130Z,1024.44
2016-11-14T00:48:05.103Z,1024.39
2016-11-14T00:49:05.074Z,1024.39
2016-11-14T00:50:05.053Z,1024.4
2016-11-14T00:51:05.024Z,1024.4
2016-11-14T00:52:04.990Z,1024.44
2016-11-14T00:53:04.961Z,1024.4
2016-11-14T00:54:04.941Z,1024.39
2016-11-14T00:55:04.931Z,1024.42
2016-11-14T00:56:04.884Z,1024.39
2016-11-14T00:57:04.854Z,1024.38
2016-11-14T00:58:04.826Z,1024.42
2016-11-14T00:59:04.803Z,1024.4
2016-11-14T01:00:04.771Z,1024.43
2016-11-14T01:01:04.750Z,1024.45
2016-11-14T01:02:04.721Z,1024.45
2016-11-14T01:03:04.691Z,1024.49
2016-11-14T01:04:04.661Z,1024.47
2016-11-14T01:05:04.645Z,1024.52
2016-11-14T01:06:04.615Z,1024.5
2016-11-14T01:07:04.590Z,1024.48
2016-11-14T01:08:04.559Z,1024.52
2016-11-14T01:09:04.524Z,1024.45
2016-11-14T01:10:04.499Z,1024.43
2016-11-14T01:11:04.472Z,1024.45
2016-11-14T01:12:04.444Z,1024.5
2016-11-14T01:13:04.421Z,1024.5
2016-11-14T01:14:04.391Z,1024.57
2016-11-14T01:15:04.363Z,1024.56
2016-11-14T01:16:04.333Z,1024.55
2016-11-14T01:17:04.305Z,1024.58
2016-11-14T01:18:04.287Z,1024.58
2016-11-14T01:19:04.253Z,1024.6
2016-11-14T01:20:04.222Z,1024.54
2016-11-14T01:21:04.203Z,1024.53
2016-11-14T01:22:04.170Z,1024.53
2016-11-14T01:23:04.142Z,1024.52
2016-11-14T01:24:04.116Z,1024.54
2016-11-14T01:25:04.083Z,1024.58
2016-11-14T01:26:04.059Z,1024.6
2016-11-14T01:27:04.034Z,1024.6
2016-11-14T01:28:04.002Z,1024.59
2016-11-14T01:29:03.980Z,1024.63
2016-11-14T01:30:03.951Z,1024.67
2016-11-14T01:31:03.925Z,1024.67
2016-11-14T01:32:03.892Z,1024.68
2016-11-14T01:33:03.865Z,1024.67
2016-11-14T01:34:03.842Z,1024.66
2016-11-14T01:35:03.817Z,1024.64
2016-11-14T01:36:03.782Z,1024.65
2016-11-14T01:37:03.761Z,1024.67
2016-11-14T01:38:03.730Z,1024.7
2016-11-14T01:39:03.699Z,1024.69
2016-11-14T01:40:03.673Z,1024.74
2016-11-14T01:41:03.642Z,1024.79
2016-11-14T01:42:03.620Z,1024.79
2016-11-14T01:43:03.596Z,1024.77
2016-11-14T01:44:03.564Z,1024.79
2016-11-14T01:45:03.540Z,1024.79
2016-11-14T01:46:03.506Z,1024.82
2016-11-14T01:47:03.486Z,1024.86
2016-11-14T01:48:03.450Z,1024.81
2016-11-14T01:49:03.423Z,1024.82
2016-11-14T01:50:03.397Z,1024.77
2016-11-14T01:51:03.379Z,1024.77
2016-11-14T01:52:03.343Z,1024.83
2016-11-14T01:53:03.315Z,1024.83
2016-11-14T01:54:03.290Z,1024.9
2016-11-14T01:55:03.265Z,1024.92
2016-11-14T01:56:03.232Z,1024.91
2016-11-14T01:57:03.203Z,1024.97
2016-11-14T01:58:03.180Z,1024.98
2016-11-14T01:59:03.149Z,1024.96
2016-11-14T02:00:03.122Z,1024.92
2016-11-14T02:01:03.105Z,1024.92
2016-11-14T02:02:03.072Z,1024.9
2016-11-14T02:03:03.042Z,1024.9
2016-11-14T02:04:03.016Z,1024.94
2016-11-14T02:05:02.989Z,1024.92
2016-11-14T02:06:02.957Z,1024.93
2016-11-14T02:07:02.928Z,1024.89
2016-11-14T02:08:02.902Z,1024.88
2016-11-14T02:09:02.873Z,1024.89
2016-11-14T02:10:02.851Z,1024.85
2016-11-14T02:11:02.824Z,1024.88
2016-11-14T02:12:02.793Z,1024.89
2016-11-14T02:13:02.772Z,1024.91
2016-11-14T02:14:02.736Z,1024.87
2016-11-14T02:15:02.712Z,1024.9
2016-11-14T02:16:02.682Z,1024.91
2016-11-14T02:17:02.655Z,1024.9
2016-11-14T02:18:02.634Z,1024.91
2016-11-14T02:19:02.607Z,1024.88
2016-11-14T02:20:02.576Z,1024.9
2016-11-14T02:21:02.550Z,1024.89
2016-11-14T02:22:02.517Z,1024.9
2016-11-14T02:23:02.496Z,1024.86
2016-11-14T02:24:02.466Z,1024.79
2016-11-14T02:25:02.446Z,1024.79
2016-11-14T02:26:02.412Z,1024.75
2016-11-14T02:27:02.386Z,1024.7
2016-11-14T02:28:02.355Z,1024.73
2016-11-14T02:29:02.326Z,1024.79
2016-11-14T02:30:02.306Z,1024.74
2016-11-14T02:31:02.272Z,1024.76
2016-11-14T02:32:02.255Z,1024.73
2016-11-14T02:33:02.211Z,1024.75
2016-11-14T02:34:02.190Z,1024.73
2016-11-14T02:35:02.164Z,1024.72
2016-11-14T02:36:02.136Z,1024.72
2016-11-14T02:37:02.105Z,1024.75
2016-11-14T02:38:02.076Z,1024.72
2016-11-14T02:39:02.056Z,1024.73
2016-11-14T02:40:02.023Z,1024.71
2016-11-14T02:41:01.995Z,1024.8
2016-11-14T02:42:01.975Z,1024.8
2016-11-14T02:43:01.942Z,1024.83
2016-11-14T02:44:01.911Z,1024.84
2016-11-14T02:45:01.881Z,1024.86
2016-11-14T02:46:01.851Z,1024.86
2016-11-14T02:47:01.831Z,1024.85
2016-11-14T02:48:01.799Z,1024.84
2016-11-14T02:49:01.768Z,1024.89
2016-11-14T02:50:01.746Z,1024.88
2016-11-14T02:51:01.714Z,1024.89
2016-11-14T02:52:01.692Z,1024.85
2016-11-14T02:53:01.663Z,1024.87
2016-11-14T02:54:01.682Z,1024.89
2016-11-14T02:55:01.604Z,1024.87
2016-11-14T02:56:01.629Z,1024.86
2016-11-14T02:57:01.549Z,1024.84
2016-11-14T02:58:01.574Z,1024.82
2016-11-14T02:59:01.489Z,1024.87
2016-11-14T03:00:01.466Z,1024.84
2016-11-14T03:01:01.434Z,1024.85
2016-11-14T03:02:01.410Z,1024.86
2016-11-14T03:03:01.380Z,1024.89
2016-11-14T03:04:01.363Z,1024.91
2016-11-14T03:05:01.321Z,1024.91
2016-11-14T03:06:01.299Z,1024.9
2016-11-14T03:07:01.274Z,1024.87
2016-11-14T03:08:01.244Z,1024.91
2016-11-14T03:09:01.210Z,1024.88
2016-11-14T03:10:01.184Z,1024.85
2016-11-14T03:11:01.161Z,1024.84
2016-11-14T03:12:01.131Z,1024.85
2016-11-14T03:13:01.100Z,1024.82
2016-11-14T03:14:01.073Z,1024.82
2016-11-14T03:15:01.047Z,1024.81
2016-11-14T03:16:01.024Z,1024.83
2016-11-14T03:17:00.990Z,1024.84
2016-11-14T03:18:00.961Z,1024.82
2016-11-14T03:19:00.931Z,1024.83
2016-11-14T03:20:00.911Z,1024.85
2016-11-14T03:21:00.883Z,1024.86
2016-11-14T03:22:00.854Z,1024.87
2016-11-14T03:23:00.820Z,1024.83
2016-11-14T03:24:00.802Z,1024.87
2016-11-14T03:25:00.774Z,1024.86
2016-11-14T03:26:00.744Z,1024.83
2016-11-14T03:27:00.713Z,1024.78
2016-11-14T03:28:00.685Z,1024.82
2016-11-14T03:29:00.663Z,1024.81
2016-11-14T03:30:00.630Z,1024.81
2016-11-14T03:31:00.605Z,1024.84
2016-11-14T03:32:00.571Z,1024.86
2016-11-14T03:33:00.554Z,1024.81
2016-11-14T03:34:00.522Z,1024.83
2016-11-14T03:35:00.490Z,1024.83
2016-11-14T03:36:00.463Z,1024.82
2016-11-14T03:37:00.433Z,1024.8
2016-11-14T03:38:00.404Z,1024.81
2016-11-14T03:39:00.381Z,1024.79
2016-11-14T03:40:00.352Z,1024.77
2016-11-14T03:41:00.327Z,1024.78
2016-11-14T03:42:00.300Z,1024.81
2016-11-14T03:43:00.271Z,1024.83
2016-11-14T03:44:00.244Z,1024.86
2016-11-14T03:45:00.212Z,1024.91
2016-11-14T03:46:00.189Z,1024.92
2016-11-14T03:47:00.161Z,1024.93
2016-11-14T03:48:00.135Z,1024.96
2016-11-14T03:49:00.104Z,1024.93
2016-11-14T03:50:00.075Z,1024.94
2016-11-14T03:51:00.048Z,1024.94
2016-11-14T03:52:00.014Z,1024.91
2016-11-14T03:52:59.995Z,1024.89
2016-11-14T03:53:59.964Z,1024.91
2016-11-14T03:55:00.036Z,1024.92
2016-11-14T03:55:59.904Z,1024.97
2016-11-14T03:56:59.882Z,1024.98
2016-11-14T03:57:59.845Z,1025
2016-11-14T03:58:59.825Z,1025.01
2016-11-14T03:59:59.788Z,1025.05
2016-11-14T04:00:59.765Z,1025
2016-11-14T04:01:59.735Z,1025.08
2016-11-14T04:02:59.765Z,1025.08
2016-11-14T04:03:59.684Z,1025.05
2016-11-14T04:04:59.652Z,1025.07
2016-11-14T04:05:59.625Z,1025.04
2016-11-14T04:06:59.603Z,1025.03
2016-11-14T04:07:59.565Z,1025.05
2016-11-14T04:08:59.545Z,1024.98
2016-11-14T04:09:59.514Z,1025
2016-11-14T04:10:59.486Z,1025.01
2016-11-14T04:11:59.462Z,1025
2016-11-14T04:12:59.436Z,1024.96
2016-11-14T04:13:59.398Z,1024.98
2016-11-14T04:14:59.379Z,1024.99
2016-11-14T04:15:59.345Z,1024.95
2016-11-14T04:16:59.321Z,1024.92
2016-11-14T04:17:59.285Z,1024.95
2016-11-14T04:18:59.261Z,1024.96
2016-11-14T04:19:59.235Z,1024.98
2016-11-14T04:20:59.205Z,1025
2016-11-14T04:21:59.177Z,1025.04
2016-11-14T04:22:59.156Z,1025.04
2016-11-14T04:23:59.122Z,1025.05
2016-11-14T04:24:59.093Z,1025.04
2016-11-14T04:25:59.065Z,1025.06
2016-11-14T04:26:59.038Z,1025.05
2016-11-14T04:27:59.010Z,1025.12
2016-11-14T04:28:58.983Z,1025.16
2016-11-14T04:29:58.956Z,1025.18
2016-11-14T04:30:58.932Z,1025.18
2016-11-14T04:31:58.901Z,1025.16
2016-11-14T04:32:58.876Z,1025.16
2016-11-14T04:33:58.846Z,1025.11
2016-11-14T04:34:58.813Z,1025.13
2016-11-14T04:35:58.787Z,1025.14
2016-11-14T04:36:58.773Z,1025.14
2016-11-14T04:37:58.735Z,1025.14
2016-11-14T04:38:58.706Z,1025.14
2016-11-14T04:39:58.677Z,1025.15
2016-11-14T04:40:58.646Z,1025.22
2016-11-14T04:41:58.622Z,1025.26
2016-11-14T04:42:58.595Z,1025.26
2016-11-14T04:43:58.566Z,1025.26
2016-11-14T04:44:58.543Z,1025.29
2016-11-14T04:45:58.513Z,1025.29
2016-11-14T04:46:58.479Z,1025.28
2016-11-14T04:47:58.456Z,1025.3
2016-11-14T04:48:58.427Z,1025.31
2016-11-14T04:49:58.402Z,1025.28
2016-11-14T04:50:58.377Z,1025.28
2016-11-14T04:51:58.343Z,1025.27
2016-11-14T04:52:58.316Z,1025.24
2016-11-14T04:53:58.285Z,1025.21
2016-11-14T04:54:58.262Z,1025.2
2016-11-14T04:55:58.334Z,1025.17
2016-11-14T04:56:58.204Z,1025.16
2016-11-14T04:57:58.182Z,1025.14
2016-11-14T04:58:58.154Z,1025.13
2016-11-14T04:59:58.129Z,1025.14
2016-11-14T05:00:58.093Z,1025.14
2016-11-14T05:01:58.067Z,1025.26
2016-11-14T05:02:58.035Z,1025.24
2016-11-14T05:03:58.015Z,1025.34
2016-11-14T05:04:57.983Z,1025.38
2016-11-14T05:05:57.953Z,1025.42
2016-11-14T05:06:57.926Z,1025.44
2016-11-14T05:07:57.893Z,1025.37
2016-11-14T05:08:57.870Z,1025.4
2016-11-14T05:09:57.846Z,1025.41
2016-11-14T05:10:57.809Z,1025.41
2016-11-14T05:11:57.784Z,1025.41
2016-11-14T05:12:57.757Z,1025.43
2016-11-14T05:13:57.728Z,1025.44
2016-11-14T05:14:57.696Z,1025.42
2016-11-14T05:15:57.674Z,1025.39
2016-11-14T05:16:57.639Z,1025.47
2016-11-14T05:17:57.614Z,1025.4
2016-11-14T05:18:57.595Z,1025.44
2016-11-14T05:19:57.564Z,1025.45
2016-11-14T05:20:57.533Z,1025.45
2016-11-14T05:21:57.507Z,1025.44
2016-11-14T05:22:57.476Z,1025.44
2016-11-14T05:23:57.454Z,1025.44
2016-11-14T05:24:57.423Z,1025.39
2016-11-14T05:25:57.393Z,1025.41
2016-11-14T05:26:57.366Z,1025.39
2016-11-14T05:27:57.337Z,1025.42
2016-11-14T05:28:57.309Z,1025.38
2016-11-14T05:29:57.280Z,1025.37
2016-11-14T05:30:57.255Z,1025.35
2016-11-14T05:31:57.223Z,1025.35
2016-11-14T05:32:57.197Z,1025.34
2016-11-14T05:33:57.177Z,1025.37
2016-11-14T05:34:57.148Z,1025.41
2016-11-14T05:35:57.115Z,1025.44
2016-11-14T05:36:57.085Z,1025.46
2016-11-14T05:37:57.055Z,1025.5
2016-11-14T05:38:57.026Z,1025.55
2016-11-14T05:39:56.999Z,1025.54
2016-11-14T05:40:56.970Z,1025.55
2016-11-14T05:41:56.944Z,1025.53
2016-11-14T05:42:56.913Z,1025.46
2016-11-14T05:43:56.886Z,1025.52
2016-11-14T05:44:56.864Z,1025.48
2016-11-14T05:45:56.833Z,1025.45
2016-11-14T05:46:56.803Z,1025.47
2016-11-14T05:47:56.774Z,1025.42
2016-11-14T05:48:56.748Z,1025.4
2016-11-14T05:49:56.724Z,1025.37
2016-11-14T05:50:56.694Z,1025.34
2016-11-14T05:51:56.660Z,1025.38
2016-11-14T05:52:56.637Z,1025.4
2016-11-14T05:53:56.605Z,1025.4
2016-11-14T05:54:56.586Z,1025.44
2016-11-14T05:55:56.554Z,1025.47
2016-11-14T05:56:56.519Z,1025.43
2016-11-14T05:57:56.492Z,1025.43
2016-11-14T05:58:56.463Z,1025.4
2016-11-14T05:59:56.433Z,1025.43
2016-11-14T06:00:56.416Z,1025.46
2016-11-14T06:01:56.386Z,1025.5
2016-11-14T06:02:56.355Z,1025.56
2016-11-14T06:03:56.331Z,1025.6
2016-11-14T06:04:56.295Z,1025.68
2016-11-14T06:05:56.264Z,1025.67
2016-11-14T06:06:56.237Z,1025.69
2016-11-14T06:07:56.211Z,1025.7
2016-11-14T06:08:56.183Z,1025.72
2016-11-14T06:09:56.154Z,1025.66
2016-11-14T06:10:56.125Z,1025.68
2016-11-14T06:11:56.102Z,1025.63
2016-11-14T06:12:56.080Z,1025.54
2016-11-14T06:13:56.043Z,1025.56
2016-11-14T06:14:56.013Z,1025.54
2016-11-14T06:15:55.985Z,1025.58
2016-11-14T06:16:55.955Z,1025.59
2016-11-14T06:17:55.934Z,1025.61
2016-11-14T06:18:55.902Z,1025.64
2016-11-14T06:19:55.875Z,1025.65
2016-11-14T06:20:55.846Z,1025.68
2016-11-14T06:21:55.817Z,1025.7
2016-11-14T06:22:55.796Z,1025.73
2016-11-14T06:23:55.757Z,1025.75
2016-11-14T06:24:55.734Z,1025.75
2016-11-14T06:25:55.703Z,1025.8
2016-11-14T06:26:55.677Z,1025.85
2016-11-14T06:27:55.657Z,1025.85
2016-11-14T06:28:55.615Z,1025.86
2016-11-14T06:29:55.594Z,1025.84
2016-11-14T06:30:55.564Z,1025.83
2016-11-14T06:31:55.534Z,1025.8
2016-11-14T06:32:55.507Z,1025.8
2016-11-14T06:33:55.482Z,1025.8
2016-11-14T06:34:55.452Z,1025.82
2016-11-14T06:35:55.423Z,1025.84
2016-11-14T06:36:55.395Z,1025.85
2016-11-14T06:37:55.363Z,1025.84
2016-11-14T06:38:55.335Z,1025.84
2016-11-14T06:39:55.306Z,1025.79
2016-11-14T06:40:55.286Z,1025.82
2016-11-14T06:41:55.255Z,1025.8
2016-11-14T06:42:55.227Z,1025.83
2016-11-14T06:43:55.192Z,1025.8
2016-11-14T06:44:55.167Z,1025.82
2016-11-14T06:45:55.138Z,1025.8
2016-11-14T06:46:55.112Z,1025.83
2016-11-14T06:47:55.085Z,1025.87
2016-11-14T06:48:55.058Z,1025.84
2016-11-14T06:49:55.036Z,1025.9
2016-11-14T06:50:54.994Z,1025.85
2016-11-14T06:51:54.968Z,1025.86
2016-11-14T06:52:54.939Z,1025.85
2016-11-14T06:53:54.914Z,1025.89
2016-11-14T06:54:54.877Z,1025.88
2016-11-14T06:55:54.854Z,1025.92
2016-11-14T06:56:54.826Z,1025.92
2016-11-14T06:57:54.799Z,1025.93
2016-11-14T06:58:54.771Z,1025.94
2016-11-14T06:59:54.742Z,1025.96
2016-11-14T07:00:54.713Z,1025.99
2016-11-14T07:01:54.683Z,1026.04
2016-11-14T07:02:54.652Z,1025.98
2016-11-14T07:03:54.623Z,1026.05
2016-11-14T07:04:54.603Z,1026.02
2016-11-14T07:05:54.572Z,1026.02
2016-11-14T07:06:54.541Z,1025.99
2016-11-14T07:07:54.514Z,1025.98
2016-11-14T07:08:54.483Z,1025.97
2016-11-14T07:09:54.463Z,1025.95
2016-11-14T07:10:54.440Z,1025.94
2016-11-14T07:11:54.397Z,1026.01
2016-11-14T07:12:54.377Z,1026.02
2016-11-14T07:13:54.355Z,1026.04
2016-11-14T07:14:54.313Z,1026
2016-11-14T07:15:54.291Z,1026.01
2016-11-14T07:16:54.258Z,1026.02
2016-11-14T07:17:54.236Z,1026.05
2016-11-14T07:18:54.201Z,1026.08
2016-11-14T07:19:54.177Z,1026.17
2016-11-14T07:20:54.147Z,1026.18
2016-11-14T07:21:54.123Z,1026.17
2016-11-14T07:22:54.091Z,1026.2
2016-11-14T07:23:54.062Z,1026.22
2016-11-14T07:24:54.037Z,1026.2
2016-11-14T07:25:54.014Z,1026.25
2016-11-14T07:26:53.981Z,1026.24
2016-11-14T07:27:53.948Z,1026.25
2016-11-14T07:28:53.925Z,1026.23
2016-11-14T07:29:53.892Z,1026.3
2016-11-14T07:30:53.869Z,1026.32
2016-11-14T07:31:53.841Z,1026.4
2016-11-14T07:32:53.811Z,1026.39
2016-11-14T07:33:53.786Z,1026.44
2016-11-14T07:34:53.768Z,1026.43
2016-11-14T07:35:53.730Z,1026.52
2016-11-14T07:36:53.749Z,1026.55
2016-11-14T07:37:53.673Z,1026.58
2016-11-14T07:38:53.643Z,1026.6
2016-11-14T07:39:53.614Z,1026.63
2016-11-14T07:40:53.593Z,1026.65
2016-11-14T07:41:53.563Z,1026.67
2016-11-14T07:42:53.632Z,1026.66
2016-11-14T07:43:53.505Z,1026.68
2016-11-14T07:44:53.484Z,1026.73
2016-11-14T07:45:53.456Z,1026.67
2016-11-14T07:46:53.428Z,1026.68
2016-11-14T07:47:53.403Z,1026.68
2016-11-14T07:48:53.374Z,1026.65
2016-11-14T07:49:53.346Z,1026.63
2016-11-14T07:50:53.326Z,1026.64
2016-11-14T07:51:53.294Z,1026.62
2016-11-14T07:52:53.264Z,1026.57
2016-11-14T07:53:53.246Z,1026.56
2016-11-14T07:54:53.214Z,1026.54
2016-11-14T07:55:53.190Z,1026.54
2016-11-14T07:56:53.202Z,1026.52
2016-11-14T07:57:53.148Z,1026.56
2016-11-14T07:58:53.118Z,1026.53
2016-11-14T07:59:53.086Z,1026.48
2016-11-14T08:00:53.063Z,1026.49
2016-11-14T08:01:53.032Z,1026.54
2016-11-14T08:02:53.003Z,1026.49
2016-11-14T08:03:52.977Z,1026.55
2016-11-14T08:04:52.953Z,1026.58
2016-11-14T08:05:52.926Z,1026.61
2016-11-14T08:06:52.902Z,1026.63
2016-11-14T08:07:52.872Z,1026.66
2016-11-14T08:08:52.848Z,1026.68
2016-11-14T08:09:52.826Z,1026.71
2016-11-14T08:10:52.797Z,1026.7
2016-11-14T08:11:52.776Z,1026.69
2016-11-14T08:12:52.744Z,1026.77
2016-11-14T08:13:52.714Z,1026.72
2016-11-14T08:14:52.696Z,1026.73
2016-11-14T08:15:52.677Z,1026.73
2016-11-14T08:16:52.646Z,1026.68
2016-11-14T08:17:52.618Z,1026.72
2016-11-14T08:18:52.587Z,1026.72
2016-11-14T08:19:52.564Z,1026.7
2016-11-14T08:20:52.537Z,1026.73
2016-11-14T08:21:52.511Z,1026.7
2016-11-14T08:22:52.492Z,1026.65
2016-11-14T08:23:52.464Z,1026.69
2016-11-14T08:24:52.444Z,1026.72
2016-11-14T08:25:52.418Z,1026.71
2016-11-14T08:26:52.396Z,1026.65
2016-11-14T08:27:52.369Z,1026.7
2016-11-14T08:28:52.347Z,1026.71
2016-11-14T08:29:52.325Z,1026.72
2016-11-14T08:30:52.295Z,1026.75
2016-11-14T08:31:52.272Z,1026.69
2016-11-14T08:32:52.254Z,1026.66
2016-11-14T08:33:52.226Z,1026.65
2016-11-14T08:34:52.201Z,1026.64
2016-11-14T08:35:52.177Z,1026.58
2016-11-14T08:36:52.156Z,1026.62
2016-11-14T08:37:52.133Z,1026.58
2016-11-14T08:38:52.110Z,1026.58
2016-11-14T08:39:52.094Z,1026.52
2016-11-14T08:40:52.068Z,1026.51
2016-11-14T08:41:52.047Z,1026.47
2016-11-14T08:42:52.028Z,1026.48
2016-11-14T08:43:52.005Z,1026.48
2016-11-14T08:44:51.984Z,1026.53
2016-11-14T08:45:51.955Z,1026.48
2016-11-14T08:46:51.934Z,1026.56
2016-11-14T08:47:51.915Z,1026.58
2016-11-14T08:48:51.896Z,1026.62
2016-11-14T08:49:51.874Z,1026.59
2016-11-14T08:50:51.855Z,1026.61
2016-11-14T08:51:51.830Z,1026.58
2016-11-14T08:52:51.812Z,1026.59
2016-11-14T08:53:51.794Z,1026.58
2016-11-14T08:54:51.788Z,1026.59
2016-11-14T08:55:51.767Z,1026.58
2016-11-14T08:56:51.738Z,1026.62
2016-11-14T08:57:51.724Z,1026.58
2016-11-14T08:58:51.700Z,1026.58
2016-11-14T08:59:51.690Z,1026.65
2016-11-14T09:00:51.664Z,1026.62
2016-11-14T09:01:51.656Z,1026.71
2016-11-14T09:02:51.634Z,1026.67
2016-11-14T09:03:51.610Z,1026.69
2016-11-14T09:04:51.592Z,1026.69
2016-11-14T09:05:51.575Z,1026.69
2016-11-14T09:06:51.562Z,1026.71
2016-11-14T09:07:51.543Z,1026.74
2016-11-14T09:08:51.523Z,1026.74
2016-11-14T09:09:51.508Z,1026.77
2016-11-14T09:10:51.486Z,1026.77
2016-11-14T09:11:51.473Z,1026.71
2016-11-14T09:12:51.467Z,1026.69
2016-11-14T09:13:51.443Z,1026.73
2016-11-14T09:14:51.424Z,1026.77
2016-11-14T09:15:51.413Z,1026.74
2016-11-14T09:16:51.393Z,1026.8
2016-11-14T09:17:51.377Z,1026.78
2016-11-14T09:18:51.363Z,1026.8
2016-11-14T09:19:51.346Z,1026.8
2016-11-14T09:20:51.334Z,1026.8
2016-11-14T09:21:51.321Z,1026.79
2016-11-14T09:22:51.307Z,1026.84
2016-11-14T09:23:51.292Z,1026.88
2016-11-14T09:24:51.276Z,1026.85
2016-11-14T09:25:51.263Z,1026.89
2016-11-14T09:26:51.243Z,1026.92
2016-11-14T09:27:51.232Z,1026.93
2016-11-14T09:28:51.212Z,1026.96
2016-11-14T09:29:51.203Z,1026.96
2016-11-14T09:30:51.194Z,1026.94
2016-11-14T09:31:51.179Z,1026.94
2016-11-14T09:32:51.163Z,1026.94
2016-11-14T09:33:51.153Z,1026.97
2016-11-14T09:34:51.134Z,1026.97
2016-11-14T09:35:51.122Z,1026.98
2016-11-14T09:36:51.107Z,1026.96
2016-11-14T09:37:51.106Z,1026.99
2016-11-14T09:38:51.083Z,1026.98
2016-11-14T09:39:51.071Z,1026.95
2016-11-14T09:40:51.052Z,1026.96
2016-11-14T09:41:51.039Z,1026.99
2016-11-14T09:42:51.035Z,1026.97
2016-11-14T09:43:51.022Z,1026.96
2016-11-14T09:44:51.003Z,1026.93
2016-11-14T09:45:50.988Z,1026.87
2016-11-14T09:46:50.972Z,1026.84
2016-11-14T09:47:50.966Z,1026.83
2016-11-14T09:48:50.947Z,1026.74
2016-11-14T09:49:50.927Z,1026.7
2016-11-14T09:50:50.913Z,1026.72
2016-11-14T09:51:50.898Z,1026.61
2016-11-14T09:52:50.881Z,1026.64
2016-11-14T09:53:50.863Z,1026.56
2016-11-14T09:54:50.843Z,1026.61
2016-11-14T09:55:50.833Z,1026.58
2016-11-14T09:56:50.808Z,1026.61
2016-11-14T09:57:50.788Z,1026.6
2016-11-14T09:58:50.782Z,1026.62
2016-11-14T09:59:50.753Z,1026.59
2016-11-14T10:00:50.735Z,1026.6
2016-11-14T10:01:50.722Z,1026.58
2016-11-14T10:02:50.705Z,1026.57
2016-11-14T10:03:50.684Z,1026.53
2016-11-14T10:04:50.663Z,1026.48
2016-11-14T10:05:50.646Z,1026.43
2016-11-14T10:06:50.632Z,1026.38
2016-11-14T10:07:50.611Z,1026.44
2016-11-14T10:08:50.584Z,1026.49
2016-11-14T10:09:50.563Z,1026.45
2016-11-14T10:10:50.546Z,1026.43
2016-11-14T10:11:50.533Z,1026.43
2016-11-14T10:12:50.506Z,1026.37
2016-11-14T10:13:50.505Z,1026.31
2016-11-14T10:14:50.469Z,1026.27
2016-11-14T10:15:50.454Z,1026.29
2016-11-14T10:16:50.428Z,1026.27
2016-11-14T10:17:50.406Z,1026.26
2016-11-14T10:18:50.383Z,1026.23
2016-11-14T10:19:50.366Z,1026.23
2016-11-14T10:20:50.347Z,1026.21
2016-11-14T10:21:50.327Z,1026.22
2016-11-14T10:22:50.302Z,1026.22
2016-11-14T10:23:50.283Z,1026.19
2016-11-14T10:24:50.262Z,1026.24
2016-11-14T10:25:50.242Z,1026.2
2016-11-14T10:26:50.221Z,1026.2
2016-11-14T10:27:50.202Z,1026.16
2016-11-14T10:28:50.185Z,1026.13
2016-11-14T10:29:50.158Z,1026.15
2016-11-14T10:30:50.152Z,1026.15
2016-11-14T10:31:50.121Z,1026.14
2016-11-14T10:32:50.103Z,1026.1
2016-11-14T10:33:50.085Z,1026.09
2016-11-14T10:34:50.060Z,1026.05
2016-11-14T10:35:50.042Z,1026.07
2016-11-14T10:36:50.015Z,1025.99
2016-11-14T10:37:49.995Z,1026.01
2016-11-14T10:38:49.974Z,1026.05
2016-11-14T10:39:49.951Z,1026.04
2016-11-14T10:40:49.936Z,1026.06
2016-11-14T10:41:49.913Z,1026.05
2016-11-14T10:42:49.893Z,1026.06
2016-11-14T10:43:49.867Z,1026.04
2016-11-14T10:44:49.852Z,1025.99
2016-11-14T10:45:49.834Z,1026
2016-11-14T10:46:49.808Z,1025.92
2016-11-14T10:47:49.789Z,1025.93
2016-11-14T10:48:49.762Z,1025.86
2016-11-14T10:49:49.752Z,1025.9
2016-11-14T10:50:49.722Z,1025.87
2016-11-14T10:51:49.702Z,1025.84
2016-11-14T10:52:49.684Z,1025.78
2016-11-14T10:53:49.660Z,1025.81
2016-11-14T10:54:49.635Z,1025.8
2016-11-14T10:55:49.618Z,1025.81
2016-11-14T10:56:49.593Z,1025.81
2016-11-14T10:57:49.582Z,1025.76
2016-11-14T10:58:49.552Z,1025.75
2016-11-14T10:59:49.555Z,1025.73
2016-11-14T11:00:49.510Z,1025.65
2016-11-14T11:01:49.492Z,1025.68
2016-11-14T11:02:49.471Z,1025.64
2016-11-14T11:03:49.452Z,1025.62
2016-11-14T11:04:49.432Z,1025.63
2016-11-14T11:05:49.406Z,1025.63
2016-11-14T11:06:49.385Z,1025.67
2016-11-14T11:07:49.361Z,1025.59
2016-11-14T11:08:49.343Z,1025.62
2016-11-14T11:09:49.325Z,1025.59
2016-11-14T11:10:49.304Z,1025.61
2016-11-14T11:11:49.273Z,1025.58
2016-11-14T11:12:49.253Z,1025.62
2016-11-14T11:13:49.232Z,1025.59
2016-11-14T11:14:49.215Z,1025.57
2016-11-14T11:15:49.189Z,1025.57
2016-11-14T11:16:49.167Z,1025.6
2016-11-14T11:17:49.150Z,1025.53
2016-11-14T11:18:49.123Z,1025.55
2016-11-14T11:19:49.101Z,1025.54
2016-11-14T11:20:49.079Z,1025.51
2016-11-14T11:21:49.062Z,1025.52
2016-11-14T11:22:49.039Z,1025.53
2016-11-14T11:23:49.015Z,1025.53
2016-11-14T11:24:48.992Z,1025.54
2016-11-14T11:25:48.979Z,1025.5
2016-11-14T11:26:48.954Z,1025.5
2016-11-14T11:27:48.930Z,1025.54
2016-11-14T11:28:48.914Z,1025.53
2016-11-14T11:29:48.884Z,1025.52
2016-11-14T11:30:48.863Z,1025.5
2016-11-14T11:31:48.844Z,1025.52
2016-11-14T11:32:48.826Z,1025.53
2016-11-14T11:33:48.800Z,1025.49
2016-11-14T11:34:48.781Z,1025.44
2016-11-14T11:35:48.751Z,1025.43
2016-11-14T11:36:48.733Z,1025.42
2016-11-14T11:37:48.708Z,1025.37
2016-11-14T11:38:48.691Z,1025.34
2016-11-14T11:39:48.674Z,1025.32
2016-11-14T11:40:48.643Z,1025.26
2016-11-14T11:41:48.623Z,1025.25
2016-11-14T11:42:48.606Z,1025.18
2016-11-14T11:43:48.577Z,1025.13
2016-11-14T11:44:48.556Z,1025.15
2016-11-14T11:45:48.535Z,1025.14
2016-11-14T11:46:48.511Z,1025.11
2016-11-14T11:47:48.495Z,1025.07
2016-11-14T11:48:48.467Z,1025.15
2016-11-14T11:49:48.444Z,1025.12
2016-11-14T11:50:48.420Z,1025.14
2016-11-14T11:51:48.407Z,1025.21
2016-11-14T11:52:48.382Z,1025.2
2016-11-14T11:53:48.361Z,1025.16
2016-11-14T11:54:48.335Z,1025.14
2016-11-14T11:55:48.313Z,1025.06
2016-11-14T11:56:48.291Z,1025.08
2016-11-14T11:57:48.273Z,1025.03
2016-11-14T11:58:48.247Z,1024.98
2016-11-14T11:59:48.223Z,1024.97
2016-11-14T12:00:48.214Z,1024.96
2016-11-14T12:01:48.177Z,1024.96
2016-11-14T12:02:48.155Z,1024.96
2016-11-14T12:03:48.136Z,1024.91
2016-11-14T12:04:48.116Z,1024.86
2016-11-14T12:05:48.093Z,1024.86
2016-11-14T12:06:48.066Z,1024.83
2016-11-14T12:07:48.053Z,1024.83